Time;durP1;ratioP1;P1;durP2;ratioP2;P2;SDS_P1;SDS_P2;PMS_P1;PMS_P2;Temp;Humidity;BMP_temperature;BMP_pressure;BME280_temperature;BME280_humidity;BME280_pressure;Samples;Min_cycle;Max_cycle;Signal;HPM_P1;HPM_P2
2022/08/01 00:01:13;;;;;;;;;;;23.50;58.90;;;;;;5107007;28;19920;-65
2022/08/01 00:03:39;;;;;;;;;;;23.50;58.90;;;;;;5105011;28;19972;-65
2022/08/01 00:06:07;;;;;;;;;;;23.50;58.90;;;;;;5104497;28;19949;-65
2022/08/01 00:08:34;;;;;;;;;;;23.50;59.00;;;;;;5104946;28;20304;-65
2022/08/01 00:11:01;;;;;;;;;;;23.50;59.00;;;;;;5105738;28;19924;-65
2022/08/01 00:13:27;;;;;;;;;;;23.50;59.00;;;;;;5106429;28;20294;-65
2022/08/01 00:15:54;;;;;;;;;;;23.50;59.00;;;;;;5104330;28;19972;-65
2022/08/01 00:18:21;;;;;;;;;;;23.50;59.00;;;;;;5101614;28;20325;-65
2022/08/01 00:20:48;;;;;;;;;;;23.50;59.00;;;;;;5106711;27;20023;-65
2022/08/01 00:23:16;;;;;;;;;;;23.50;59.00;;;;;;5105384;28;19931;-65
2022/08/01 00:25:43;;;;;;;;;;;23.50;59.10;;;;;;5100720;28;20014;-65
2022/08/01 00:28:09;;;;;;;;;;;23.50;59.00;;;;;;5107032;28;20531;-65
2022/08/01 00:30:36;;;;;;;;;;;23.50;59.10;;;;;;5101938;28;20320;-65
2022/08/01 00:33:03;;;;;;;;;;;23.50;59.10;;;;;;5103555;28;19963;-65
2022/08/01 00:35:29;;;;;;;;;;;23.50;59.10;;;;;;5106064;27;20441;-65
2022/08/01 00:37:56;;;;;;;;;;;23.50;59.10;;;;;;5102627;28;19990;-65
2022/08/01 00:40:25;;;;;;;;;;;23.50;59.20;;;;;;5109962;28;19955;-65
2022/08/01 00:42:51;;;;;;;;;;;23.50;59.20;;;;;;5111518;28;19973;-65
2022/08/01 00:45:18;;;;;;;;;;;23.50;59.20;;;;;;5102270;28;19927;-65
2022/08/01 00:47:45;;;;;;;;;;;23.50;59.20;;;;;;5111448;27;19924;-65
2022/08/01 00:50:12;;;;;;;;;;;23.50;59.30;;;;;;5108701;28;19920;-65
2022/08/01 00:52:38;;;;;;;;;;;23.50;59.20;;;;;;5107685;28;19969;-65
2022/08/01 00:55:05;;;;;;;;;;;23.50;59.30;;;;;;5109328;28;19924;-65
2022/08/01 00:57:33;;;;;;;;;;;23.50;59.30;;;;;;5092637;28;19955;-65
2022/08/01 01:00:00;;;;;;;;;;;23.50;59.30;;;;;;5116565;27;20261;-65
2022/08/01 01:02:26;;;;;;;;;;;23.50;59.30;;;;;;5109500;28;20300;-65
2022/08/01 01:04:53;;;;;;;;;;;23.50;59.30;;;;;;5109403;28;19932;-65
2022/08/01 01:07:22;;;;;;;;;;;23.50;59.30;;;;;;5110113;28;19924;-65
2022/08/01 01:09:51;;;;;;;;;;;23.50;59.30;;;;;;5106930;28;20373;-65
2022/08/01 01:12:20;;;;;;;;;;;23.50;59.30;;;;;;5111005;28;19968;-65
2022/08/01 01:14:49;;;;;;;;;;;23.50;59.40;;;;;;5101878;28;19973;-65
2022/08/01 01:17:16;;;;;;;;;;;23.40;59.20;;;;;;5109791;28;20349;-65
2022/08/01 01:19:46;;;;;;;;;;;23.40;59.30;;;;;;5107957;28;19920;-65
2022/08/01 01:22:33;;;;;;;;;;;23.40;59.30;;;;;;5099400;28;19965;-65
2022/08/01 01:25:08;;;;;;;;;;;23.40;59.30;;;;;;5068546;28;19961;-65
2022/08/01 01:27:38;;;;;;;;;;;23.40;59.30;;;;;;5109892;28;20023;-65
2022/08/01 01:30:07;;;;;;;;;;;23.40;59.30;;;;;;5109792;28;20335;-65
2022/08/01 01:32:34;;;;;;;;;;;23.40;59.30;;;;;;5108758;28;19977;-65
2022/08/01 01:35:01;;;;;;;;;;;23.40;59.30;;;;;;5108598;28;19927;-65
2022/08/01 01:37:28;;;;;;;;;;;23.40;59.30;;;;;;5102763;28;20356;-65
2022/08/01 01:39:55;;;;;;;;;;;23.40;59.30;;;;;;5093957;28;19928;-65
2022/08/01 01:42:21;;;;;;;;;;;23.40;59.30;;;;;;5110561;28;20391;-65
2022/08/01 01:44:48;;;;;;;;;;;23.40;59.30;;;;;;5106085;28;19942;-65
2022/08/01 01:47:17;;;;;;;;;;;23.40;59.30;;;;;;5101109;28;19981;-65
2022/08/01 01:49:44;;;;;;;;;;;23.50;59.40;;;;;;5110522;28;20347;-65
2022/08/01 01:52:11;;;;;;;;;;;23.50;59.40;;;;;;5109256;28;20314;-65
2022/08/01 01:54:40;;;;;;;;;;;23.40;59.30;;;;;;5107731;28;19920;-65
2022/08/01 01:57:07;;;;;;;;;;;23.40;59.30;;;;;;5100614;28;19924;-65
2022/08/01 01:59:34;;;;;;;;;;;23.40;59.30;;;;;;5105399;28;20369;-65
2022/08/01 02:02:02;;;;;;;;;;;23.50;59.50;;;;;;5108334;28;20385;-65
2022/08/01 02:04:30;;;;;;;;;;;23.40;59.40;;;;;;5108928;28;19928;-65
2022/08/01 02:06:56;;;;;;;;;;;23.40;59.40;;;;;;5108875;28;19973;-65
2022/08/01 02:09:24;;;;;;;;;;;23.50;59.50;;;;;;5104512;28;20014;-65
2022/08/01 02:11:50;;;;;;;;;;;23.40;59.40;;;;;;5092471;28;19924;-65
2022/08/01 02:14:17;;;;;;;;;;;23.40;59.50;;;;;;5097218;28;20395;-65
2022/08/01 02:16:45;;;;;;;;;;;23.40;59.40;;;;;;5110018;28;20391;-65
2022/08/01 02:19:11;;;;;;;;;;;23.40;59.50;;;;;;5114780;28;19919;-65
2022/08/01 02:21:41;;;;;;;;;;;23.40;59.40;;;;;;5113627;28;19920;-66
2022/08/01 02:24:09;;;;;;;;;;;23.40;59.50;;;;;;5108957;28;20262;-65
2022/08/01 02:26:35;;;;;;;;;;;23.40;59.50;;;;;;5102772;28;19923;-65
2022/08/01 02:29:03;;;;;;;;;;;23.40;59.50;;;;;;5108908;28;19927;-65
2022/08/01 02:31:30;;;;;;;;;;;23.40;59.50;;;;;;5103572;28;19920;-65
2022/08/01 02:33:58;;;;;;;;;;;23.40;59.50;;;;;;5107783;28;20002;-65
2022/08/01 02:36:25;;;;;;;;;;;23.40;59.60;;;;;;5109712;28;19920;-65
2022/08/01 02:38:53;;;;;;;;;;;23.40;59.60;;;;;;5107951;28;19923;-65
2022/08/01 02:41:20;;;;;;;;;;;23.40;59.60;;;;;;5091890;28;19920;-65
2022/08/01 02:43:47;;;;;;;;;;;23.40;59.60;;;;;;5108962;28;20333;-65
2022/08/01 02:46:16;;;;;;;;;;;23.40;59.60;;;;;;5095923;28;19920;-65
2022/08/01 02:48:43;;;;;;;;;;;23.40;59.60;;;;;;5108446;28;19997;-65
2022/08/01 02:51:09;;;;;;;;;;;23.40;59.60;;;;;;5108669;28;19920;-65
2022/08/01 02:53:38;;;;;;;;;;;23.30;59.50;;;;;;5107268;28;19927;-65
2022/08/01 02:56:06;;;;;;;;;;;23.30;59.50;;;;;;5102360;28;19927;-65
2022/08/01 02:58:33;;;;;;;;;;;23.40;59.60;;;;;;5107905;28;19924;-65
2022/08/01 03:00:59;;;;;;;;;;;23.30;59.50;;;;;;5104813;28;19920;-65
2022/08/01 03:03:26;;;;;;;;;;;23.30;59.50;;;;;;5100882;28;19923;-65
2022/08/01 03:05:53;;;;;;;;;;;23.40;59.60;;;;;;5105177;28;19920;-65
2022/08/01 03:08:19;;;;;;;;;;;23.40;59.60;;;;;;5110962;28;19927;-65
2022/08/01 03:10:46;;;;;;;;;;;23.30;59.50;;;;;;5121137;27;20019;-65
2022/08/01 03:13:14;;;;;;;;;;;23.30;59.50;;;;;;5097323;28;19923;-65
2022/08/01 03:15:41;;;;;;;;;;;23.30;59.50;;;;;;5113040;28;19928;-65
2022/08/01 03:18:08;;;;;;;;;;;23.30;59.50;;;;;;5113197;28;19920;-65
2022/08/01 03:20:35;;;;;;;;;;;23.30;59.60;;;;;;5110699;28;19928;-65
2022/08/01 03:23:03;;;;;;;;;;;23.30;59.50;;;;;;5097661;28;19936;-65
2022/08/01 03:25:29;;;;;;;;;;;23.30;59.60;;;;;;5112734;28;20264;-65
2022/08/01 03:27:57;;;;;;;;;;;23.30;60.20;;;;;;5109347;28;20432;-65
2022/08/01 03:30:26;;;;;;;;;;;23.30;59.60;;;;;;5122108;27;19929;-65
2022/08/01 03:32:53;;;;;;;;;;;23.30;59.60;;;;;;5100725;28;20403;-65
2022/08/01 03:35:19;;;;;;;;;;;23.30;59.60;;;;;;5111784;28;20688;-65
2022/08/01 03:37:47;;;;;;;;;;;23.30;59.60;;;;;;5109046;28;19924;-65
2022/08/01 03:40:14;;;;;;;;;;;23.30;59.60;;;;;;5095033;28;20288;-65
2022/08/01 03:42:42;;;;;;;;;;;23.30;59.60;;;;;;5102864;28;19920;-65
2022/08/01 03:45:10;;;;;;;;;;;23.30;59.60;;;;;;5111773;28;20374;-65
2022/08/01 03:47:38;;;;;;;;;;;23.30;59.50;;;;;;5095057;28;19924;-65
2022/08/01 03:50:05;;;;;;;;;;;23.30;59.50;;;;;;5110388;28;19930;-65
2022/08/01 03:52:32;;;;;;;;;;;23.30;59.50;;;;;;5098779;28;19988;-65
2022/08/01 03:54:59;;;;;;;;;;;23.30;59.50;;;;;;5111493;28;19954;-65
2022/08/01 03:57:26;;;;;;;;;;;23.30;59.50;;;;;;5101957;28;20250;-65
2022/08/01 03:59:53;;;;;;;;;;;23.30;59.50;;;;;;5110586;28;19970;-65
2022/08/01 04:02:20;;;;;;;;;;;23.30;59.50;;;;;;5103774;28;20014;-66
2022/08/01 04:04:48;;;;;;;;;;;23.30;59.50;;;;;;5111118;28;19919;-65
2022/08/01 04:07:24;;;;;;;;;;;23.30;59.50;;;;;;5110580;28;20395;-65
2022/08/01 04:09:51;;;;;;;;;;;23.30;59.50;;;;;;5104603;28;20311;-65
2022/08/01 04:12:18;;;;;;;;;;;23.30;59.50;;;;;;5111031;28;19920;-65
2022/08/01 04:14:45;;;;;;;;;;;23.30;59.50;;;;;;5111048;28;20418;-65
2022/08/01 04:17:11;;;;;;;;;;;23.30;59.50;;;;;;5097323;28;20412;-65
2022/08/01 04:19:38;;;;;;;;;;;23.30;59.50;;;;;;5108641;28;20353;-65
2022/08/01 04:22:06;;;;;;;;;;;23.30;59.50;;;;;;5104901;28;19963;-65
2022/08/01 04:24:33;;;;;;;;;;;23.30;59.50;;;;;;5104668;28;19931;-65
2022/08/01 04:27:00;;;;;;;;;;;23.30;59.50;;;;;;5111951;28;19920;-65
2022/08/01 04:29:27;;;;;;;;;;;23.30;59.50;;;;;;5106443;28;20040;-65
2022/08/01 04:31:54;;;;;;;;;;;23.30;59.50;;;;;;5109028;27;19995;-65
2022/08/01 04:34:21;;;;;;;;;;;23.30;59.50;;;;;;5103422;27;19923;-65
2022/08/01 04:36:48;;;;;;;;;;;23.30;59.50;;;;;;5110595;28;20296;-65
2022/08/01 04:39:17;;;;;;;;;;;23.30;59.50;;;;;;5111529;28;20373;-65
2022/08/01 04:41:43;;;;;;;;;;;23.30;59.50;;;;;;5103411;28;19927;-65
2022/08/01 04:44:10;;;;;;;;;;;23.30;59.50;;;;;;5109433;28;20016;-65
2022/08/01 04:46:37;;;;;;;;;;;23.30;59.50;;;;;;5108315;28;20034;-65
2022/08/01 04:49:05;;;;;;;;;;;23.30;59.50;;;;;;5102588;28;19919;-65
2022/08/01 04:51:32;;;;;;;;;;;23.30;59.50;;;;;;5103147;28;19931;-65
2022/08/01 04:54:00;;;;;;;;;;;23.30;59.50;;;;;;5109770;28;19927;-65
2022/08/01 04:56:28;;;;;;;;;;;23.30;59.50;;;;;;5110971;27;19926;-65
2022/08/01 05:01:36;;;;;;;;;;;23.30;59.60;;;;;;5094331;28;19992;-65
2022/08/01 05:04:02;;;;;;;;;;;23.30;59.60;;;;;;5107658;28;19927;-65
2022/08/01 05:06:29;;;;;;;;;;;23.30;59.70;;;;;;5104098;28;19936;-65
2022/08/01 05:08:56;;;;;;;;;;;23.30;59.70;;;;;;5101280;28;19924;-65
2022/08/01 05:11:23;;;;;;;;;;;23.30;59.60;;;;;;5101344;28;19924;-65
2022/08/01 05:13:51;;;;;;;;;;;23.30;59.70;;;;;;5102496;28;19920;-65
2022/08/01 05:16:18;;;;;;;;;;;23.30;59.70;;;;;;5103530;28;19920;-65
2022/08/01 05:18:44;;;;;;;;;;;23.30;59.70;;;;;;5101037;28;20072;-65
2022/08/01 05:21:11;;;;;;;;;;;23.20;59.60;;;;;;5083083;28;19984;-65
2022/08/01 05:23:38;;;;;;;;;;;23.30;59.80;;;;;;5102740;28;19920;-65
2022/08/01 05:26:04;;;;;;;;;;;23.30;59.80;;;;;;5101131;28;19920;-65
2022/08/01 05:28:31;;;;;;;;;;;23.20;59.70;;;;;;5099463;28;19919;-65
2022/08/01 05:30:59;;;;;;;;;;;23.30;59.80;;;;;;5103927;28;20326;-65
2022/08/01 05:33:26;;;;;;;;;;;23.20;59.90;;;;;;5103079;28;19926;-65
2022/08/01 05:35:53;;;;;;;;;;;23.30;59.90;;;;;;5098245;28;19955;-65
2022/08/01 05:38:19;;;;;;;;;;;23.20;59.90;;;;;;5110422;28;19920;-65
2022/08/01 05:40:46;;;;;;;;;;;23.20;59.90;;;;;;5108307;28;19973;-64
2022/08/01 05:43:13;;;;;;;;;;;23.20;59.80;;;;;;5110585;28;19923;-65
2022/08/01 05:45:41;;;;;;;;;;;23.20;59.90;;;;;;5106339;28;19920;-65
2022/08/01 05:48:09;;;;;;;;;;;23.20;59.90;;;;;;5102863;28;19955;-65
2022/08/01 05:50:36;;;;;;;;;;;23.20;59.90;;;;;;5109282;28;19931;-65
2022/08/01 05:53:03;;;;;;;;;;;23.20;59.90;;;;;;5104458;28;19997;-65
2022/08/01 05:55:30;;;;;;;;;;;23.20;59.90;;;;;;5109154;28;19923;-65
2022/08/01 05:57:56;;;;;;;;;;;23.20;59.90;;;;;;5109010;28;19980;-65
2022/08/01 06:00:23;;;;;;;;;;;23.20;59.90;;;;;;5098786;28;19931;-65
2022/08/01 06:02:50;;;;;;;;;;;23.20;60.00;;;;;;5107271;28;20257;-65
2022/08/01 06:05:18;;;;;;;;;;;23.10;59.90;;;;;;5109094;28;19924;-65
2022/08/01 06:07:45;;;;;;;;;;;23.10;59.90;;;;;;5110145;28;19934;-65
2022/08/01 06:10:12;;;;;;;;;;;23.20;60.70;;;;;;5104045;28;19920;-65
2022/08/01 06:12:38;;;;;;;;;;;23.10;59.90;;;;;;5109689;28;19927;-65
2022/08/01 06:15:05;;;;;;;;;;;23.10;59.90;;;;;;5106432;28;19936;-65
2022/08/01 06:17:32;;;;;;;;;;;23.10;59.90;;;;;;5109490;28;19931;-65
2022/08/01 06:19:59;;;;;;;;;;;23.10;60.00;;;;;;5107068;28;19920;-65
2022/08/01 06:22:27;;;;;;;;;;;23.10;60.00;;;;;;5107529;28;19966;-65
2022/08/01 06:24:54;;;;;;;;;;;23.10;60.00;;;;;;5108931;28;19923;-65
2022/08/01 06:27:20;;;;;;;;;;;23.10;60.00;;;;;;5108379;28;19923;-65
2022/08/01 06:29:48;;;;;;;;;;;23.10;60.00;;;;;;5094588;28;19920;-65
2022/08/01 06:32:15;;;;;;;;;;;23.10;60.00;;;;;;5104559;28;20027;-65
2022/08/01 06:34:42;;;;;;;;;;;23.10;59.90;;;;;;5108082;28;20010;-65
2022/08/01 06:37:09;;;;;;;;;;;23.00;59.90;;;;;;5107971;28;19953;-65
2022/08/01 06:39:37;;;;;;;;;;;23.00;59.90;;;;;;5107896;28;19965;-65
2022/08/01 06:42:03;;;;;;;;;;;23.00;59.80;;;;;;5095926;28;19977;-65
2022/08/01 06:44:30;;;;;;;;;;;23.00;59.80;;;;;;5113259;28;19976;-65
2022/08/01 06:46:58;;;;;;;;;;;23.00;59.80;;;;;;5106854;27;19969;-65
2022/08/01 06:49:25;;;;;;;;;;;23.00;59.70;;;;;;5112204;28;20253;-65
2022/08/01 06:51:52;;;;;;;;;;;23.00;59.70;;;;;;5111377;28;19924;-65
2022/08/01 06:54:19;;;;;;;;;;;23.00;59.60;;;;;;5110293;28;19931;-65
2022/08/01 06:56:47;;;;;;;;;;;23.00;59.60;;;;;;5124653;27;19946;-65
2022/08/01 06:59:14;;;;;;;;;;;23.00;59.70;;;;;;5113646;28;19930;-65
2022/08/01 07:01:41;;;;;;;;;;;23.00;59.60;;;;;;5102601;28;19981;-65
2022/08/01 07:04:07;;;;;;;;;;;23.00;59.60;;;;;;5092772;28;19924;-65
2022/08/01 07:06:34;;;;;;;;;;;23.00;59.60;;;;;;5092094;28;19959;-65
2022/08/01 07:09:02;;;;;;;;;;;22.90;59.50;;;;;;5105982;28;20280;-64
2022/08/01 07:11:28;;;;;;;;;;;22.90;58.90;;;;;;5102788;28;20288;-64
2022/08/01 07:13:56;;;;;;;;;;;22.90;59.40;;;;;;5106214;28;20361;-64
2022/08/01 07:16:23;;;;;;;;;;;22.90;59.40;;;;;;5104606;28;19920;-65
2022/08/01 07:18:50;;;;;;;;;;;22.90;59.40;;;;;;5103145;28;20388;-65
2022/08/01 07:21:17;;;;;;;;;;;22.90;59.40;;;;;;5100266;28;19927;-65
2022/08/01 07:23:44;;;;;;;;;;;22.90;59.40;;;;;;5101282;28;19924;-65
2022/08/01 07:26:11;;;;;;;;;;;22.90;59.40;;;;;;5102157;28;19920;-64
2022/08/01 07:28:37;;;;;;;;;;;22.90;59.30;;;;;;5104158;28;19927;-65
2022/08/01 07:31:05;;;;;;;;;;;22.90;59.30;;;;;;5097178;28;19924;-66
2022/08/01 07:33:32;;;;;;;;;;;22.90;59.30;;;;;;5108276;28;19920;-64
2022/08/01 07:35:59;;;;;;;;;;;22.90;59.30;;;;;;5110734;28;19954;-65
2022/08/01 07:38:25;;;;;;;;;;;22.90;59.30;;;;;;5099923;28;19948;-65
2022/08/01 07:40:52;;;;;;;;;;;22.90;59.30;;;;;;5103864;28;19919;-65
2022/08/01 07:43:19;;;;;;;;;;;22.90;59.20;;;;;;5100486;28;20026;-65
2022/08/01 07:45:46;;;;;;;;;;;22.90;59.20;;;;;;5106183;28;19924;-65
2022/08/01 07:48:14;;;;;;;;;;;22.90;59.20;;;;;;5103763;28;20383;-65
2022/08/01 07:50:41;;;;;;;;;;;22.90;59.10;;;;;;5105947;28;20399;-65
2022/08/01 07:53:09;;;;;;;;;;;22.90;59.10;;;;;;5127580;27;20277;-65
2022/08/01 07:55:36;;;;;;;;;;;22.90;59.00;;;;;;5101013;28;19943;-64
2022/08/01 07:58:03;;;;;;;;;;;22.90;59.00;;;;;;5109249;28;19920;-64
2022/08/01 08:00:30;;;;;;;;;;;22.90;58.90;;;;;;5107702;28;19920;-65
2022/08/01 08:02:58;;;;;;;;;;;22.90;58.90;;;;;;5112004;28;20421;-64
2022/08/01 08:05:27;;;;;;;;;;;22.90;58.80;;;;;;5106491;28;19936;-65
2022/08/01 08:07:53;;;;;;;;;;;22.90;58.70;;;;;;5099177;28;20019;-64
2022/08/01 08:10:20;;;;;;;;;;;22.90;58.70;;;;;;5095966;28;19950;-65
2022/08/01 08:12:48;;;;;;;;;;;22.90;58.70;;;;;;5107172;28;20359;-65
2022/08/01 08:15:15;;;;;;;;;;;22.90;58.60;;;;;;5101944;28;19989;-65
2022/08/01 08:17:41;;;;;;;;;;;22.90;58.60;;;;;;5106577;28;19963;-65
2022/08/01 08:20:08;;;;;;;;;;;22.90;58.50;;;;;;5106640;28;19997;-65
2022/08/01 08:22:36;;;;;;;;;;;22.90;58.40;;;;;;5101410;28;19935;-65
2022/08/01 08:25:03;;;;;;;;;;;22.90;58.30;;;;;;5100195;28;19920;-64
2022/08/01 08:27:30;;;;;;;;;;;22.90;58.30;;;;;;5104834;28;19920;-65
2022/08/01 08:29:57;;;;;;;;;;;22.90;58.30;;;;;;5107422;27;19927;-65
2022/08/01 08:32:23;;;;;;;;;;;22.90;58.20;;;;;;5108494;28;20285;-64
2022/08/01 08:34:50;;;;;;;;;;;22.90;58.10;;;;;;5104748;28;19920;-64
2022/08/01 08:37:18;;;;;;;;;;;22.90;58.00;;;;;;5107103;28;19920;-65
2022/08/01 08:39:46;;;;;;;;;;;22.90;58.00;;;;;;5103411;28;20280;-65
2022/08/01 08:42:13;;;;;;;;;;;22.90;57.80;;;;;;5110323;28;19920;-62
2022/08/01 08:44:40;;;;;;;;;;;22.90;57.70;;;;;;5107198;28;20298;-63
2022/08/01 08:47:07;;;;;;;;;;;22.90;57.40;;;;;;5097511;28;19920;-63
2022/08/01 08:49:34;;;;;;;;;;;22.90;56.90;;;;;;5102560;28;20400;-63
2022/08/01 08:52:01;;;;;;;;;;;22.90;56.70;;;;;;5106131;28;19949;-62
2022/08/01 08:54:28;;;;;;;;;;;22.90;56.60;;;;;;5106244;28;19988;-63
2022/08/01 08:56:56;;;;;;;;;;;22.80;56.30;;;;;;5110666;28;19919;-63
2022/08/01 08:59:24;;;;;;;;;;;22.80;56.10;;;;;;5094659;28;19969;-63
2022/08/01 09:01:50;;;;;;;;;;;22.80;56.00;;;;;;5105700;28;19920;-62
2022/08/01 09:04:17;;;;;;;;;;;22.80;56.00;;;;;;5101052;28;19924;-57
2022/08/01 09:06:44;;;;;;;;;;;22.80;56.10;;;;;;5109870;28;19972;-56
2022/08/01 09:09:11;;;;;;;;;;;22.80;56.10;;;;;;5105503;28;20392;-53
2022/08/01 09:11:37;;;;;;;;;;;22.80;56.20;;;;;;5106430;28;19932;-56
2022/08/01 09:14:07;;;;;;;;;;;22.80;56.20;;;;;;5100094;28;20410;-56
2022/08/01 09:16:34;;;;;;;;;;;22.80;56.30;;;;;;5104969;28;20433;-56
2022/08/01 09:19:07;;;;;;;;;;;22.90;56.40;;;;;;5098643;28;20364;-57
2022/08/01 09:21:34;;;;;;;;;;;22.90;56.30;;;;;;5104109;28;19927;-55
2022/08/01 09:24:02;;;;;;;;;;;22.90;56.30;;;;;;5105987;28;19986;-56
2022/08/01 09:26:32;;;;;;;;;;;22.90;56.20;;;;;;5102529;28;19920;-55
2022/08/01 09:29:00;;;;;;;;;;;22.90;56.20;;;;;;5110384;28;20010;-56
2022/08/01 09:31:28;;;;;;;;;;;22.90;56.10;;;;;;5102809;28;19992;-57
2022/08/01 09:33:55;;;;;;;;;;;22.90;56.10;;;;;;5105976;28;19920;-56
2022/08/01 09:36:24;;;;;;;;;;;22.90;56.10;;;;;;5105724;28;20585;-55
2022/08/01 09:38:51;;;;;;;;;;;22.90;56.10;;;;;;5102849;28;20392;-54
2022/08/01 09:41:18;;;;;;;;;;;23.00;56.20;;;;;;5104685;28;19920;-58
2022/08/01 09:43:48;;;;;;;;;;;23.00;56.20;;;;;;5109767;28;19920;-56
2022/08/01 09:46:15;;;;;;;;;;;23.00;56.20;;;;;;5103666;28;20022;-56
2022/08/01 09:48:50;;;;;;;;;;;23.00;56.20;;;;;;5105157;28;19978;-57
2022/08/01 09:51:16;;;;;;;;;;;23.00;56.10;;;;;;5101920;28;20008;-57
2022/08/01 09:53:44;;;;;;;;;;;23.00;56.10;;;;;;5097992;28;19973;-56
2022/08/01 09:56:11;;;;;;;;;;;23.00;56.10;;;;;;5098166;28;19920;-53
2022/08/01 09:58:56;;;;;;;;;;;23.10;56.10;;;;;;5110574;28;20336;-58
2022/08/01 10:01:23;;;;;;;;;;;23.10;56.10;;;;;;5092854;28;19981;-56
2022/08/01 10:06:44;;;;;;;;;;;23.10;56.10;;;;;;5058337;27;2006100;-56
2022/08/01 10:09:11;;;;;;;;;;;23.10;56.00;;;;;;5097550;28;19924;-56
2022/08/01 10:11:38;;;;;;;;;;;23.10;56.00;;;;;;5088337;28;20288;-54
2022/08/01 10:14:05;;;;;;;;;;;23.10;56.00;;;;;;5089774;28;19960;-52
2022/08/01 10:16:33;;;;;;;;;;;23.10;56.00;;;;;;5078683;28;19969;-54
2022/08/01 10:18:59;;;;;;;;;;;23.10;56.00;;;;;;5080872;28;20015;-54
2022/08/01 10:21:26;;;;;;;;;;;23.10;55.90;;;;;;5084973;28;20241;-55
2022/08/01 10:23:54;;;;;;;;;;;23.10;55.90;;;;;;5098367;28;19928;-58
2022/08/01 10:26:21;;;;;;;;;;;23.10;55.80;;;;;;5080869;28;19970;-53
2022/08/01 10:28:48;;;;;;;;;;;23.10;55.80;;;;;;5088306;28;19964;-55
2022/08/01 10:31:15;;;;;;;;;;;23.10;55.80;;;;;;5086291;28;19943;-55
2022/08/01 10:33:42;;;;;;;;;;;23.10;55.80;;;;;;5090838;28;19920;-54
2022/08/01 10:36:09;;;;;;;;;;;23.10;55.70;;;;;;5099116;28;20292;-52
2022/08/01 10:38:35;;;;;;;;;;;23.10;55.70;;;;;;5085088;28;19920;-54
2022/08/01 10:41:04;;;;;;;;;;;23.20;55.60;;;;;;5090449;28;19963;-55
2022/08/01 10:43:31;;;;;;;;;;;23.20;55.60;;;;;;5074267;28;19930;-57
2022/08/01 10:45:57;;;;;;;;;;;23.20;55.50;;;;;;5109173;28;20031;-55
2022/08/01 10:48:25;;;;;;;;;;;23.20;55.40;;;;;;5103446;28;19924;-54
2022/08/01 10:50:52;;;;;;;;;;;23.20;55.40;;;;;;5102846;28;19962;-53
2022/08/01 10:53:20;;;;;;;;;;;23.20;55.40;;;;;;5089422;28;19924;-55
2022/08/01 10:55:47;;;;;;;;;;;23.20;55.40;;;;;;5089995;28;19983;-52
2022/08/01 10:58:15;;;;;;;;;;;23.20;55.40;;;;;;5079768;28;20373;-58
2022/08/01 11:00:42;;;;;;;;;;;23.20;55.30;;;;;;5086719;28;20352;-57
2022/08/01 11:03:08;;;;;;;;;;;23.20;55.20;;;;;;5108949;28;19973;-50
2022/08/01 11:05:36;;;;;;;;;;;23.20;55.20;;;;;;5099083;28;20458;-49
2022/08/01 11:08:04;;;;;;;;;;;23.20;55.20;;;;;;5084944;28;19924;-58
2022/08/01 11:10:32;;;;;;;;;;;23.20;55.20;;;;;;5086137;28;20349;-54
2022/08/01 11:13:00;;;;;;;;;;;23.20;55.20;;;;;;5083614;28;20277;-51
2022/08/01 11:15:29;;;;;;;;;;;23.20;55.10;;;;;;5087137;28;20428;-53
2022/08/01 11:17:55;;;;;;;;;;;23.30;55.20;;;;;;5084466;28;20424;-53
2022/08/01 11:20:22;;;;;;;;;;;23.30;55.20;;;;;;5078947;28;19970;-51
2022/08/01 11:23:12;;;;;;;;;;;23.20;54.90;;;;;;5065601;28;19920;-56
2022/08/01 11:26:12;;;;;;;;;;;23.20;54.80;;;;;;5089280;28;20277;-51
2022/08/01 11:28:39;;;;;;;;;;;23.20;54.60;;;;;;5006944;28;19979;-51
2022/08/01 11:31:21;;;;;;;;;;;23.20;54.50;;;;;;5012462;28;19921;-52
2022/08/01 11:33:52;;;;;;;;;;;23.20;54.30;;;;;;5044474;28;19973;-54
2022/08/01 11:36:20;;;;;;;;;;;23.20;54.10;;;;;;5091952;28;19928;-53
2022/08/01 11:38:47;;;;;;;;;;;23.30;54.20;;;;;;5105182;28;19926;-55
2022/08/01 11:41:14;;;;;;;;;;;23.20;54.00;;;;;;5071577;28;20379;-55
2022/08/01 11:43:55;;;;;;;;;;;23.30;54.10;;;;;;5078245;28;19962;-51
2022/08/01 11:46:36;;;;;;;;;;;23.20;54.00;;;;;;5079793;28;19920;-51
2022/08/01 11:49:22;;;;;;;;;;;23.20;53.80;;;;;;5090375;28;19928;-51
2022/08/01 11:51:50;;;;;;;;;;;23.20;53.80;;;;;;5078749;28;19981;-52
2022/08/01 11:54:16;;;;;;;;;;;23.20;53.80;;;;;;5089000;28;20419;-50
2022/08/01 11:56:43;;;;;;;;;;;23.20;53.80;;;;;;5072549;28;19920;-54
2022/08/01 11:59:10;;;;;;;;;;;23.20;53.80;;;;;;5068884;28;19960;-55
2022/08/01 12:01:37;;;;;;;;;;;23.30;53.80;;;;;;5075174;28;20301;-54
2022/08/01 12:04:04;;;;;;;;;;;23.30;53.70;;;;;;5070847;28;20328;-55
2022/08/01 12:06:30;;;;;;;;;;;23.30;53.70;;;;;;5068210;28;20007;-54
2022/08/01 12:08:59;;;;;;;;;;;23.30;53.60;;;;;;5075132;28;19927;-54
2022/08/01 12:11:25;;;;;;;;;;;23.30;53.60;;;;;;5066273;28;19946;-55
2022/08/01 12:13:52;;;;;;;;;;;23.30;53.50;;;;;;5074761;28;19920;-55
2022/08/01 12:16:19;;;;;;;;;;;23.30;53.50;;;;;;5075425;28;19978;-55
2022/08/01 12:18:46;;;;;;;;;;;23.30;53.50;;;;;;5073872;28;19959;-56
2022/08/01 12:21:12;;;;;;;;;;;23.30;53.50;;;;;;5076619;28;20277;-55
2022/08/01 12:23:39;;;;;;;;;;;23.30;53.40;;;;;;5091709;28;19920;-55
2022/08/01 12:26:07;;;;;;;;;;;23.30;53.40;;;;;;5078960;28;20324;-55
2022/08/01 12:28:39;;;;;;;;;;;23.30;53.40;;;;;;5071225;28;19920;-56
2022/08/01 12:31:06;;;;;;;;;;;23.30;53.40;;;;;;5092117;28;19924;-55
2022/08/01 12:33:32;;;;;;;;;;;23.30;53.30;;;;;;5094769;28;19924;-55
2022/08/01 12:35:59;;;;;;;;;;;23.30;53.30;;;;;;5066081;28;19924;-55
2022/08/01 12:38:26;;;;;;;;;;;23.30;53.20;;;;;;5073613;28;20372;-55
2022/08/01 12:40:53;;;;;;;;;;;23.30;53.10;;;;;;5077377;28;19962;-54
2022/08/01 12:43:22;;;;;;;;;;;23.30;53.10;;;;;;5099755;28;19926;-56
2022/08/01 12:45:49;;;;;;;;;;;23.30;53.00;;;;;;5064065;28;20348;-59
2022/08/01 12:48:17;;;;;;;;;;;23.30;52.90;;;;;;5076288;28;20326;-52
2022/08/01 12:50:45;;;;;;;;;;;23.30;52.90;;;;;;5082648;28;19920;-56
2022/08/01 12:53:13;;;;;;;;;;;23.30;52.70;;;;;;5073770;28;19964;-56
2022/08/01 12:55:44;;;;;;;;;;;23.30;52.60;;;;;;5085972;28;19923;-56
2022/08/01 12:58:11;;;;;;;;;;;23.30;52.40;;;;;;5074253;28;20381;-56
2022/08/01 13:00:40;;;;;;;;;;;23.30;52.40;;;;;;5067847;28;19978;-50
2022/08/01 13:03:07;;;;;;;;;;;23.30;52.30;;;;;;5069040;28;20357;-56
2022/08/01 13:05:47;;;;;;;;;;;23.30;52.20;;;;;;5073976;28;19962;-54
2022/08/01 13:08:15;;;;;;;;;;;23.30;52.20;;;;;;5056249;28;19921;-54
2022/08/01 13:10:42;;;;;;;;;;;23.30;52.20;;;;;;5071586;28;19920;-55
2022/08/01 13:13:09;;;;;;;;;;;23.30;52.10;;;;;;5071136;28;19973;-56
2022/08/01 13:15:35;;;;;;;;;;;23.30;52.10;;;;;;5088264;28;19982;-56
2022/08/01 13:18:22;;;;;;;;;;;23.30;52.00;;;;;;5069229;28;20327;-53
2022/08/01 13:20:50;;;;;;;;;;;23.30;51.90;;;;;;5063039;28;19973;-55
2022/08/01 13:23:17;;;;;;;;;;;23.30;51.80;;;;;;5086474;28;19920;-56
2022/08/01 13:25:50;;;;;;;;;;;23.40;51.90;;;;;;5065510;28;20268;-54
2022/08/01 13:28:18;;;;;;;;;;;23.30;51.70;;;;;;5081388;28;19952;-54
2022/08/01 13:30:54;;;;;;;;;;;23.30;51.70;;;;;;5075903;28;19921;-49
2022/08/01 13:33:22;;;;;;;;;;;23.30;51.70;;;;;;5086688;28;19944;-55
2022/08/01 13:35:51;;;;;;;;;;;23.30;51.60;;;;;;5059721;28;20011;-54
2022/08/01 13:38:18;;;;;;;;;;;23.30;52.20;;;;;;5069252;28;20015;-53
2022/08/01 13:40:44;;;;;;;;;;;23.30;51.60;;;;;;5068222;28;19985;-53
2022/08/01 13:43:11;;;;;;;;;;;23.30;51.50;;;;;;5082054;28;20349;-57
2022/08/01 13:45:38;;;;;;;;;;;23.30;51.40;;;;;;5065261;28;19921;-55
2022/08/01 13:48:05;;;;;;;;;;;23.30;51.30;;;;;;5067167;28;20262;-57
2022/08/01 13:50:32;;;;;;;;;;;23.30;51.30;;;;;;5067698;28;20202;-52
2022/08/01 13:53:00;;;;;;;;;;;23.30;51.40;;;;;;5070073;28;20357;-54
2022/08/01 13:55:26;;;;;;;;;;;23.30;51.30;;;;;;5067734;28;19927;-57
2022/08/01 13:57:53;;;;;;;;;;;23.30;51.20;;;;;;5072053;28;20369;-57
2022/08/01 14:00:20;;;;;;;;;;;23.30;51.10;;;;;;5067768;28;20022;-60
2022/08/01 14:02:47;;;;;;;;;;;23.40;51.10;;;;;;5067598;28;20431;-57
2022/08/01 14:05:14;;;;;;;;;;;23.40;51.10;;;;;;5066510;28;19928;-56
2022/08/01 14:07:40;;;;;;;;;;;23.40;51.00;;;;;;5066727;28;20361;-57
2022/08/01 14:10:09;;;;;;;;;;;23.40;50.80;;;;;;5087768;28;19924;-55
2022/08/01 14:12:36;;;;;;;;;;;23.40;50.80;;;;;;5071055;28;19939;-55
2022/08/01 14:15:03;;;;;;;;;;;23.40;50.80;;;;;;5069478;28;19924;-57
2022/08/01 14:17:30;;;;;;;;;;;23.40;50.60;;;;;;5069151;28;19945;-58
2022/08/01 14:19:59;;;;;;;;;;;23.40;50.60;;;;;;5069702;28;19928;-64
2022/08/01 14:22:25;;;;;;;;;;;23.40;50.60;;;;;;5069421;28;20011;-65
2022/08/01 14:24:52;;;;;;;;;;;23.40;50.30;;;;;;5072465;28;19920;-64